sensor_id;sensor_type;location;lat;lon;timestamp;pressure;altitude;pressure_sealevel;temperature;humidity
31681;BME280;18281;51.364;9.566;2023-07-29T00:00:21;99318.13;;;16.29;100.00
31681;BME280;18281;51.364;9.566;2023-07-29T00:02:46;99319.25;;;16.26;100.00
31681;BME280;18281;51.364;9.566;2023-07-29T00:05:11;99316.56;;;16.16;100.00
31681;BME280;18281;51.364;9.566;2023-07-29T00:07:37;99312.38;;;16.14;100.00
31681;BME280;18281;51.364;9.566;2023-07-29T00:10:02;99315.47;;;16.09;100.00
31681;BME280;18281;51.364;9.566;2023-07-29T00:12:28;99309.19;;;16.30;100.00
31681;BME280;18281;51.364;9.566;2023-07-29T00:14:53;99312.25;;;16.25;100.00
31681;BME280;18281;51.364;9.566;2023-07-29T00:17:18;99306.97;;;16.25;100.00
31681;BME280;18281;51.364;9.566;2023-07-29T00:19:45;99308.50;;;16.27;100.00
31681;BME280;18281;51.364;9.566;2023-07-29T00:22:10;99303.03;;;16.39;100.00
31681;BME280;18281;51.364;9.566;2023-07-29T00:24:36;99309.19;;;16.30;100.00
31681;BME280;18281;51.364;9.566;2023-07-29T00:27:01;99309.91;;;16.22;100.00
31681;BME280;18281;51.364;9.566;2023-07-29T00:29:26;99305.13;;;16.25;100.00
31681;BME280;18281;51.364;9.566;2023-07-29T00:31:51;99304.16;;;16.07;100.00
31681;BME280;18281;51.364;9.566;2023-07-29T00:34:17;99308.22;;;16.11;100.00
31681;BME280;18281;51.364;9.566;2023-07-29T00:36:44;99314.75;;;16.07;100.00
31681;BME280;18281;51.364;9.566;2023-07-29T00:39:09;99311.97;;;16.18;100.00
31681;BME280;18281;51.364;9.566;2023-07-29T00:41:35;99311.41;;;16.15;100.00
31681;BME280;18281;51.364;9.566;2023-07-29T00:44:00;99306.56;;;16.10;100.00
31681;BME280;18281;51.364;9.566;2023-07-29T00:46:25;99299.84;;;16.06;100.00
31681;BME280;18281;51.364;9.566;2023-07-29T00:48:51;99288.28;;;16.26;100.00
31681;BME280;18281;51.364;9.566;2023-07-29T00:51:17;99287.72;;;16.03;100.00
31681;BME280;18281;51.364;9.566;2023-07-29T00:53:42;99289.53;;;16.13;100.00
31681;BME280;18281;51.364;9.566;2023-07-29T00:56:07;99286.19;;;16.30;100.00
31681;BME280;18281;51.364;9.566;2023-07-29T00:58:32;99288.56;;;16.23;100.00
31681;BME280;18281;51.364;9.566;2023-07-29T01:00:58;99279.06;;;16.31;100.00
31681;BME280;18281;51.364;9.566;2023-07-29T01:03:23;99275.03;;;16.26;100.00
31681;BME280;18281;51.364;9.566;2023-07-29T01:11:44;99274.91;;;16.28;100.00
31681;BME280;18281;51.364;9.566;2023-07-29T01:13:50;99282.44;;;16.13;100.00
31681;BME280;18281;51.364;9.566;2023-07-29T01:16:33;99275.88;;;16.17;100.00
31681;BME280;18281;51.364;9.566;2023-07-29T01:19:03;99273.66;;;16.22;100.00
31681;BME280;18281;51.364;9.566;2023-07-29T01:21:29;99265.28;;;16.27;100.00
31681;BME280;18281;51.364;9.566;2023-07-29T01:23:58;99261.09;;;16.15;100.00
31681;BME280;18281;51.364;9.566;2023-07-29T01:26:24;99263.63;;;16.26;100.00
31681;BME280;18281;51.364;9.566;2023-07-29T01:28:49;99256.63;;;16.45;100.00
31681;BME280;18281;51.364;9.566;2023-07-29T01:31:29;99259.97;;;16.27;100.00
31681;BME280;18281;51.364;9.566;2023-07-29T01:33:58;99261.78;;;16.26;100.00
31681;BME280;18281;51.364;9.566;2023-07-29T01:36:25;99274.06;;;16.27;100.00
31681;BME280;18281;51.364;9.566;2023-07-29T01:38:52;99283.00;;;16.17;100.00
31681;BME280;18281;51.364;9.566;2023-07-29T01:41:19;99283.25;;;16.14;100.00
31681;BME280;18281;51.364;9.566;2023-07-29T01:43:45;99271.28;;;16.00;100.00
31681;BME280;18281;51.364;9.566;2023-07-29T01:46:12;99280.22;;;16.08;100.00
31681;BME280;18281;51.364;9.566;2023-07-29T01:48:37;99285.63;;;16.07;100.00
31681;BME280;18281;51.364;9.566;2023-07-29T01:51:03;99290.66;;;16.10;100.00
31681;BME280;18281;51.364;9.566;2023-07-29T01:53:28;99280.06;;;16.10;100.00
31681;BME280;18281;51.364;9.566;2023-07-29T01:55:53;99276.44;;;16.21;100.00
31681;BME280;18281;51.364;9.566;2023-07-29T01:58:18;99283.16;;;16.15;100.00
31681;BME280;18281;51.364;9.566;2023-07-29T02:00:44;99273.66;;;15.93;100.00
31681;BME280;18281;51.364;9.566;2023-07-29T02:03:09;99276.72;;;16.08;100.00
31681;BME280;18281;51.364;9.566;2023-07-29T02:05:34;99278.94;;;16.03;100.00
31681;BME280;18281;51.364;9.566;2023-07-29T02:07:59;99274.75;;;16.20;100.00
31681;BME280;18281;51.364;9.566;2023-07-29T02:10:24;99274.47;;;15.93;100.00
31681;BME280;18281;51.364;9.566;2023-07-29T02:12:50;99275.59;;;16.10;100.00
31681;BME280;18281;51.364;9.566;2023-07-29T02:15:15;99267.09;;;16.07;100.00
31681;BME280;18281;51.364;9.566;2023-07-29T02:17:43;99264.88;;;16.12;100.00
31681;BME280;18281;51.364;9.566;2023-07-29T02:20:09;99258.72;;;16.21;100.00
31681;BME280;18281;51.364;9.566;2023-07-29T02:22:35;99252.75;;;16.19;100.00
31681;BME280;18281;51.364;9.566;2023-07-29T02:25:01;99258.31;;;15.87;100.00
31681;BME280;18281;51.364;9.566;2023-07-29T02:27:26;99250.94;;;15.90;100.00
31681;BME280;18281;51.364;9.566;2023-07-29T02:29:52;99250.22;;;16.08;100.00
31681;BME280;18281;51.364;9.566;2023-07-29T02:32:17;99242.16;;;16.00;100.00
31681;BME280;18281;51.364;9.566;2023-07-29T02:34:42;99244.66;;;15.91;100.00
31681;BME280;18281;51.364;9.566;2023-07-29T02:37:08;99235.03;;;16.00;100.00
31681;BME280;18281;51.364;9.566;2023-07-29T02:39:33;99244.66;;;15.91;100.00
31681;BME280;18281;51.364;9.566;2023-07-29T02:41:58;99241.88;;;15.93;100.00
31681;BME280;18281;51.364;9.566;2023-07-29T02:44:23;99246.19;;;16.14;100.00
31681;BME280;18281;51.364;9.566;2023-07-29T02:46:49;99241.03;;;16.22;100.00
31681;BME280;18281;51.364;9.566;2023-07-29T02:49:14;99234.50;;;16.06;100.00
31681;BME280;18281;51.364;9.566;2023-07-29T02:51:39;99239.38;;;15.91;100.00
31681;BME280;18281;51.364;9.566;2023-07-29T02:54:04;99230.59;;;16.01;100.00
31681;BME280;18281;51.364;9.566;2023-07-29T02:56:29;99228.34;;;15.96;100.00
31681;BME280;18281;51.364;9.566;2023-07-29T02:58:55;99221.69;;;16.02;100.00
31681;BME280;18281;51.364;9.566;2023-07-29T03:01:21;99213.47;;;16.05;100.00
31681;BME280;18281;51.364;9.566;2023-07-29T03:03:46;99209.28;;;15.92;100.00
31681;BME280;18281;51.364;9.566;2023-07-29T03:06:13;99200.38;;;16.03;100.00
31681;BME280;18281;51.364;9.566;2023-07-29T03:08:38;99208.31;;;15.84;100.00
31681;BME280;18281;51.364;9.566;2023-07-29T03:11:11;99193.97;;;16.06;100.00
31681;BME280;18281;51.364;9.566;2023-07-29T03:13:37;99196.59;;;16.06;100.00
31681;BME280;18281;51.364;9.566;2023-07-29T03:16:10;99188.13;;;15.92;100.00
31681;BME280;18281;51.364;9.566;2023-07-29T03:18:35;99189.78;;;15.84;100.00
31681;BME280;18281;51.364;9.566;2023-07-29T03:21:01;99193.66;;;15.89;100.00
31681;BME280;18281;51.364;9.566;2023-07-29T03:23:27;99189.06;;;16.01;100.00
31681;BME280;18281;51.364;9.566;2023-07-29T03:25:53;99185.88;;;16.07;100.00
31681;BME280;18281;51.364;9.566;2023-07-29T03:28:21;99188.38;;;16.09;100.00
31681;BME280;18281;51.364;9.566;2023-07-29T03:30:47;99192.69;;;16.00;100.00
31681;BME280;18281;51.364;9.566;2023-07-29T03:33:12;99188.38;;;15.89;100.00
31681;BME280;18281;51.364;9.566;2023-07-29T03:35:37;99192.03;;;15.88;100.00
31681;BME280;18281;51.364;9.566;2023-07-29T03:38:02;99186.72;;;15.88;100.00
31681;BME280;18281;51.364;9.566;2023-07-29T03:40:28;99185.72;;;15.89;100.00
31681;BME280;18281;51.364;9.566;2023-07-29T03:42:53;99176.97;;;15.79;100.00
31681;BME280;18281;51.364;9.566;2023-07-29T03:45:18;99178.78;;;15.79;100.00
31681;BME280;18281;51.364;9.566;2023-07-29T03:47:43;99170.97;;;15.87;100.00
31681;BME280;18281;51.364;9.566;2023-07-29T03:50:08;99175.31;;;15.78;100.00
31681;BME280;18281;51.364;9.566;2023-07-29T03:52:34;99180.56;;;15.98;100.00
31681;BME280;18281;51.364;9.566;2023-07-29T03:54:59;99189.22;;;15.80;100.00
31681;BME280;18281;51.364;9.566;2023-07-29T03:57:24;99187.25;;;15.92;100.00
31681;BME280;18281;51.364;9.566;2023-07-29T03:59:49;99180.59;;;15.78;100.00
31681;BME280;18281;51.364;9.566;2023-07-29T04:02:15;99181.28;;;15.80;100.00
31681;BME280;18281;51.364;9.566;2023-07-29T04:04:40;99182.97;;;15.71;100.00
31681;BME280;18281;51.364;9.566;2023-07-29T04:07:07;99181.44;;;15.69;100.00
31681;BME280;18281;51.364;9.566;2023-07-29T04:09:32;99183.03;;;15.60;100.00
31681;BME280;18281;51.364;9.566;2023-07-29T04:11:58;99183.53;;;15.75;100.00
31681;BME280;18281;51.364;9.566;2023-07-29T04:14:23;99181.13;;;15.72;100.00
31681;BME280;18281;51.364;9.566;2023-07-29T04:16:48;99170.13;;;15.86;100.00
31681;BME280;18281;51.364;9.566;2023-07-29T04:19:14;99164.56;;;15.80;100.00
31681;BME280;18281;51.364;9.566;2023-07-29T04:21:39;99172.94;;;15.85;100.00
31681;BME280;18281;51.364;9.566;2023-07-29T04:24:04;99178.06;;;15.86;100.00
31681;BME280;18281;51.364;9.566;2023-07-29T04:26:30;99178.38;;;15.83;100.00
31681;BME280;18281;51.364;9.566;2023-07-29T04:28:55;99174.72;;;15.84;100.00
31681;BME280;18281;51.364;9.566;2023-07-29T04:31:20;99180.72;;;15.86;100.00
31681;BME280;18281;51.364;9.566;2023-07-29T04:33:46;99172.22;;;15.83;100.00
31681;BME280;18281;51.364;9.566;2023-07-29T04:36:11;99167.50;;;15.86;100.00
31681;BME280;18281;51.364;9.566;2023-07-29T04:38:37;99165.53;;;15.79;100.00
31681;BME280;18281;51.364;9.566;2023-07-29T04:41:02;99166.94;;;15.73;100.00
31681;BME280;18281;51.364;9.566;2023-07-29T04:43:27;99164.69;;;15.68;100.00
31681;BME280;18281;51.364;9.566;2023-07-29T04:45:53;99163.59;;;15.71;100.00
31681;BME280;18281;51.364;9.566;2023-07-29T04:48:18;99167.75;;;15.64;100.00
31681;BME280;18281;51.364;9.566;2023-07-29T04:50:43;99165.25;;;15.72;100.00
31681;BME280;18281;51.364;9.566;2023-07-29T04:53:09;99168.19;;;15.69;100.00
31681;BME280;18281;51.364;9.566;2023-07-29T04:55:34;99158.72;;;15.86;100.00
31681;BME280;18281;51.364;9.566;2023-07-29T04:57:59;99156.63;;;15.80;100.00
31681;BME280;18281;51.364;9.566;2023-07-29T05:00:25;99172.22;;;15.83;100.00
31681;BME280;18281;51.364;9.566;2023-07-29T05:02:50;99162.75;;;15.90;100.00
31681;BME280;18281;51.364;9.566;2023-07-29T05:05:16;99160.25;;;15.88;100.00
31681;BME280;18281;51.364;9.566;2023-07-29T05:07:41;99157.47;;;15.70;100.00
31681;BME280;18281;51.364;9.566;2023-07-29T05:10:07;99162.75;;;15.80;100.00
31681;BME280;18281;51.364;9.566;2023-07-29T05:12:32;99155.94;;;15.87;100.00
31681;BME280;18281;51.364;9.566;2023-07-29T05:14:57;99153.69;;;15.92;100.00
31681;BME280;18281;51.364;9.566;2023-07-29T05:17:23;99157.75;;;15.77;100.00
31681;BME280;18281;51.364;9.566;2023-07-29T05:19:48;99147.69;;;15.90;100.00
31681;BME280;18281;51.364;9.566;2023-07-29T05:22:13;99153.84;;;15.81;100.00
31681;BME280;18281;51.364;9.566;2023-07-29T05:24:38;99151.88;;;15.73;100.00
31681;BME280;18281;51.364;9.566;2023-07-29T05:27:04;99144.94;;;15.82;100.00
31681;BME280;18281;51.364;9.566;2023-07-29T05:29:29;99149.38;;;15.91;100.00
31681;BME280;18281;51.364;9.566;2023-07-29T05:31:54;99143.38;;;15.89;100.00
31681;BME280;18281;51.364;9.566;2023-07-29T05:34:19;99145.91;;;15.81;100.00
31681;BME280;18281;51.364;9.566;2023-07-29T05:36:45;99141.72;;;15.88;100.00
31681;BME280;18281;51.364;9.566;2023-07-29T05:39:10;99141.16;;;15.95;100.00
31681;BME280;18281;51.364;9.566;2023-07-29T05:41:37;99144.66;;;15.75;100.00
31681;BME280;18281;51.364;9.566;2023-07-29T05:44:02;99139.91;;;15.89;100.00
31681;BME280;18281;51.364;9.566;2023-07-29T05:46:27;99142.00;;;15.85;100.00
31681;BME280;18281;51.364;9.566;2023-07-29T05:48:52;99138.53;;;15.85;100.00
31681;BME280;18281;51.364;9.566;2023-07-29T05:51:18;99131.69;;;15.92;100.00
31681;BME280;18281;51.364;9.566;2023-07-29T05:53:44;99135.31;;;15.81;100.00
31681;BME280;18281;51.364;9.566;2023-07-29T05:56:09;99139.88;;;15.99;100.00
31681;BME280;18281;51.364;9.566;2023-07-29T05:58:35;99143.66;;;16.06;100.00
31681;BME280;18281;51.364;9.566;2023-07-29T06:01:00;99147.41;;;16.03;100.00
31681;BME280;18281;51.364;9.566;2023-07-29T06:03:26;99146.56;;;16.03;100.00
31681;BME280;18281;51.364;9.566;2023-07-29T06:05:51;99147.28;;;15.95;100.00
31681;BME280;18281;51.364;9.566;2023-07-29T06:08:16;99148.09;;;16.05;100.00
31681;BME280;18281;51.364;9.566;2023-07-29T06:10:41;99142.69;;;15.97;100.00
31681;BME280;18281;51.364;9.566;2023-07-29T06:13:06;99148.50;;;16.10;100.00
31681;BME280;18281;51.364;9.566;2023-07-29T06:15:32;99149.38;;;16.11;100.00
31681;BME280;18281;51.364;9.566;2023-07-29T06:17:57;99156.88;;;16.16;100.00
31681;BME280;18281;51.364;9.566;2023-07-29T06:20:22;99152.94;;;16.20;100.00
31681;BME280;18281;51.364;9.566;2023-07-29T06:22:48;99148.31;;;16.32;100.00
31681;BME280;18281;51.364;9.566;2023-07-29T06:25:13;99153.50;;;16.23;100.00
31681;BME280;18281;51.364;9.566;2023-07-29T06:27:38;99153.50;;;16.23;100.00
31681;BME280;18281;51.364;9.566;2023-07-29T06:30:03;99144.59;;;16.24;100.00
31681;BME280;18281;51.364;9.566;2023-07-29T06:32:29;99137.88;;;16.30;100.00
31681;BME280;18281;51.364;9.566;2023-07-29T06:34:54;99135.38;;;16.29;100.00
31681;BME280;18281;51.364;9.566;2023-07-29T06:37:19;99134.75;;;16.54;100.00
31681;BME280;18281;51.364;9.566;2023-07-29T06:39:45;99146.19;;;16.55;100.00
31681;BME280;18281;51.364;9.566;2023-07-29T06:42:10;99135.56;;;16.65;100.00
31681;BME280;18281;51.364;9.566;2023-07-29T06:44:35;99149.22;;;16.60;100.00
31681;BME280;18281;51.364;9.566;2023-07-29T06:47:01;99139.19;;;16.64;100.00
31681;BME280;18281;51.364;9.566;2023-07-29T06:49:26;99149.78;;;16.64;100.00
31681;BME280;18281;51.364;9.566;2023-07-29T06:51:51;99146.41;;;16.71;100.00
31681;BME280;18281;51.364;9.566;2023-07-29T06:54:16;99145.63;;;16.89;100.00
31681;BME280;18281;51.364;9.566;2023-07-29T06:56:42;99150.94;;;16.79;100.00
31681;BME280;18281;51.364;9.566;2023-07-29T06:59:07;99141.34;;;16.78;100.00
31681;BME280;18281;51.364;9.566;2023-07-29T07:01:33;99148.63;;;16.94;100.00
31681;BME280;18281;51.364;9.566;2023-07-29T07:03:58;99142.97;;;16.89;100.00
31681;BME280;18281;51.364;9.566;2023-07-29T07:06:24;99143.00;;;16.79;100.00
31681;BME280;18281;51.364;9.566;2023-07-29T07:08:49;99146.00;;;16.94;100.00
31681;BME280;18281;51.364;9.566;2023-07-29T07:11:15;99148.84;;;16.83;100.00
31681;BME280;18281;51.364;9.566;2023-07-29T07:13:40;99155.09;;;16.91;100.00
31681;BME280;18281;51.364;9.566;2023-07-29T07:16:05;99153.09;;;16.75;100.00
31681;BME280;18281;51.364;9.566;2023-07-29T07:18:30;99142.19;;;16.79;100.00
31681;BME280;18281;51.364;9.566;2023-07-29T07:20:56;99147.41;;;16.88;100.00
31681;BME280;18281;51.364;9.566;2023-07-29T07:23:21;99148.53;;;16.96;100.00
31681;BME280;18281;51.364;9.566;2023-07-29T07:25:46;99149.41;;;16.86;100.00
31681;BME280;18281;51.364;9.566;2023-07-29T07:28:11;99137.13;;;16.85;100.00
31681;BME280;18281;51.364;9.566;2023-07-29T07:30:40;99138.72;;;16.78;100.00
31681;BME280;18281;51.364;9.566;2023-07-29T07:33:06;99143.72;;;16.99;100.00
31681;BME280;18281;51.364;9.566;2023-07-29T07:35:31;99151.16;;;16.96;100.00
31681;BME280;18281;51.364;9.566;2023-07-29T07:37:56;99156.50;;;17.14;100.00
31681;BME280;18281;51.364;9.566;2023-07-29T07:40:23;99159.41;;;16.92;100.00
31681;BME280;18281;51.364;9.566;2023-07-29T07:42:49;99160.59;;;17.08;100.00
31681;BME280;18281;51.364;9.566;2023-07-29T07:45:14;99170.50;;;17.06;100.00
31681;BME280;18281;51.364;9.566;2023-07-29T07:47:39;99158.59;;;17.10;100.00
31681;BME280;18281;51.364;9.566;2023-07-29T07:50:04;99161.72;;;17.05;100.00
31681;BME280;18281;51.364;9.566;2023-07-29T07:52:29;99160.97;;;17.13;100.00
31681;BME280;18281;51.364;9.566;2023-07-29T07:54:55;99159.31;;;17.12;100.00
31681;BME280;18281;51.364;9.566;2023-07-29T07:57:21;99161.38;;;17.18;100.00
31681;BME280;18281;51.364;9.566;2023-07-29T07:59:46;99157.22;;;17.06;100.00
31681;BME280;18281;51.364;9.566;2023-07-29T08:02:12;99142.50;;;17.21;100.00
31681;BME280;18281;51.364;9.566;2023-07-29T08:04:37;99140.16;;;17.18;100.00
31681;BME280;18281;51.364;9.566;2023-07-29T08:07:02;99146.66;;;17.24;100.00
31681;BME280;18281;51.364;9.566;2023-07-29T08:09:27;99162.03;;;17.20;100.00
31681;BME280;18281;51.364;9.566;2023-07-29T08:11:52;99156.16;;;17.26;100.00
31681;BME280;18281;51.364;9.566;2023-07-29T08:14:18;99159.72;;;17.07;100.00
31681;BME280;18281;51.364;9.566;2023-07-29T08:16:43;99156.81;;;17.29;100.00
31681;BME280;18281;51.364;9.566;2023-07-29T08:19:08;99148.56;;;17.32;100.00
31681;BME280;18281;51.364;9.566;2023-07-29T08:21:34;99148.44;;;17.51;100.00
31681;BME280;18281;51.364;9.566;2023-07-29T08:24:00;99142.47;;;17.49;100.00
31681;BME280;18281;51.364;9.566;2023-07-29T08:26:25;99159.81;;;17.43;100.00
31681;BME280;18281;51.364;9.566;2023-07-29T08:28:50;99163.47;;;17.42;100.00
31681;BME280;18281;51.364;9.566;2023-07-29T08:31:16;99157.25;;;17.52;100.00
31681;BME280;18281;51.364;9.566;2023-07-29T08:33:41;99161.94;;;17.40;100.00
31681;BME280;18281;51.364;9.566;2023-07-29T08:36:06;99159.13;;;17.59;100.00
31681;BME280;18281;51.364;9.566;2023-07-29T08:38:31;99162.16;;;17.65;100.00
31681;BME280;18281;51.364;9.566;2023-07-29T08:40:58;99166.19;;;17.69;100.00
31681;BME280;18281;51.364;9.566;2023-07-29T08:43:28;99163.69;;;17.67;100.00
31681;BME280;18281;51.364;9.566;2023-07-29T08:45:55;99164.38;;;17.69;100.00
31681;BME280;18281;51.364;9.566;2023-07-29T08:48:23;99166.50;;;17.66;100.00
31681;BME280;18281;51.364;9.566;2023-07-29T08:50:54;99164.97;;;17.81;100.00
31681;BME280;18281;51.364;9.566;2023-07-29T08:53:20;99167.03;;;17.69;100.00
31681;BME280;18281;51.364;9.566;2023-07-29T08:55:46;99163.03;;;17.65;100.00
31681;BME280;18281;51.364;9.566;2023-07-29T08:58:12;99158.53;;;17.66;100.00
31681;BME280;18281;51.364;9.566;2023-07-29T09:00:37;99160.66;;;17.62;100.00
31681;BME280;18281;51.364;9.566;2023-07-29T09:03:04;99172.69;;;17.74;100.00
31681;BME280;18281;51.364;9.566;2023-07-29T09:05:32;99168.78;;;17.79;100.00
31681;BME280;18281;51.364;9.566;2023-07-29T09:07:58;99164.47;;;18.04;100.00
31681;BME280;18281;51.364;9.566;2023-07-29T09:10:24;99161.91;;;18.12;100.00
31681;BME280;18281;51.364;9.566;2023-07-29T09:12:50;99160.50;;;18.08;100.00
31681;BME280;18281;51.364;9.566;2023-07-29T09:15:28;99162.66;;;18.22;100.00
31681;BME280;18281;51.364;9.566;2023-07-29T09:17:55;99172.13;;;18.25;100.00
31681;BME280;18281;51.364;9.566;2023-07-29T09:20:26;99158.38;;;18.30;100.00
31681;BME280;18281;51.364;9.566;2023-07-29T09:22:57;99150.22;;;18.57;100.00
31681;BME280;18281;51.364;9.566;2023-07-29T09:25:26;99148.66;;;18.73;100.00
31681;BME280;18281;51.364;9.566;2023-07-29T09:27:51;99144.91;;;18.57;100.00
31681;BME280;18281;51.364;9.566;2023-07-29T09:30:17;99153.97;;;18.73;100.00
31681;BME280;18281;51.364;9.566;2023-07-29T09:32:42;99146.34;;;18.78;100.00
31681;BME280;18281;51.364;9.566;2023-07-29T09:35:11;99145.38;;;18.87;100.00
31681;BME280;18281;51.364;9.566;2023-07-29T09:37:37;99154.00;;;18.81;100.00
31681;BME280;18281;51.364;9.566;2023-07-29T09:40:03;99149.72;;;18.88;100.00
31681;BME280;18281;51.364;9.566;2023-07-29T09:42:28;99146.59;;;18.93;100.00
31681;BME280;18281;51.364;9.566;2023-07-29T09:44:53;99154.31;;;19.13;100.00
31681;BME280;18281;51.364;9.566;2023-07-29T09:47:22;99150.59;;;18.97;100.00
31681;BME280;18281;51.364;9.566;2023-07-29T09:49:48;99149.41;;;18.91;100.00
31681;BME280;18281;51.364;9.566;2023-07-29T09:52:20;99148.56;;;18.91;100.00
31681;BME280;18281;51.364;9.566;2023-07-29T09:54:47;99145.31;;;19.14;100.00
31681;BME280;18281;51.364;9.566;2023-07-29T09:57:16;99142.53;;;19.32;100.00
31681;BME280;18281;51.364;9.566;2023-07-29T09:59:41;99135.91;;;19.52;100.00
31681;BME280;18281;51.364;9.566;2023-07-29T10:02:13;99144.91;;;19.59;100.00
31681;BME280;18281;51.364;9.566;2023-07-29T10:04:40;99140.56;;;19.50;100.00
31681;BME280;18281;51.364;9.566;2023-07-29T10:07:06;99135.22;;;19.34;100.00
31681;BME280;18281;51.364;9.566;2023-07-29T10:09:32;99132.25;;;19.53;100.00
31681;BME280;18281;51.364;9.566;2023-07-29T10:11:58;99135.09;;;19.68;100.00
31681;BME280;18281;51.364;9.566;2023-07-29T10:14:23;99132.25;;;19.45;100.00
31681;BME280;18281;51.364;9.566;2023-07-29T10:16:49;99127.63;;;19.72;100.00
31681;BME280;18281;51.364;9.566;2023-07-29T10:19:14;99133.59;;;19.74;100.00
31681;BME280;18281;51.364;9.566;2023-07-29T10:21:41;99121.31;;;19.81;100.00
31681;BME280;18281;51.364;9.566;2023-07-29T10:24:11;99123.28;;;19.71;100.00
31681;BME280;18281;51.364;9.566;2023-07-29T10:26:39;99119.97;;;19.77;100.00
31681;BME280;18281;51.364;9.566;2023-07-29T10:29:05;99114.59;;;20.02;100.00
31681;BME280;18281;51.364;9.566;2023-07-29T10:31:33;99114.75;;;20.17;100.00
31681;BME280;18281;51.364;9.566;2023-07-29T10:33:59;99125.88;;;20.37;100.00
31681;BME280;18281;51.364;9.566;2023-07-29T10:36:24;99124.38;;;20.26;100.00
31681;BME280;18281;51.364;9.566;2023-07-29T10:38:50;99123.72;;;20.32;100.00
31681;BME280;18281;51.364;9.566;2023-07-29T10:41:15;99131.56;;;20.34;100.00
31681;BME280;18281;51.364;9.566;2023-07-29T10:43:41;99121.41;;;20.37;100.00
31681;BME280;18281;51.364;9.566;2023-07-29T10:46:15;99114.88;;;20.32;100.00
31681;BME280;18281;51.364;9.566;2023-07-29T10:48:44;99112.91;;;20.25;100.00
31681;BME280;18281;51.364;9.566;2023-07-29T10:51:23;99112.56;;;20.20;100.00
31681;BME280;18281;51.364;9.566;2023-07-29T10:53:58;99113.31;;;19.89;100.00
31681;BME280;18281;51.364;9.566;2023-07-29T10:56:28;99116.97;;;19.88;100.00
31681;BME280;18281;51.364;9.566;2023-07-29T11:01:38;99129.94;;;19.83;100.00
31681;BME280;18281;51.364;9.566;2023-07-29T11:09:42;99117.63;;;19.90;100.00
31681;BME280;18281;51.364;9.566;2023-07-29T11:15:01;99114.28;;;19.97;100.00
31681;BME280;18281;51.364;9.566;2023-07-29T11:17:28;99103.47;;;19.82;100.00
31681;BME280;18281;51.364;9.566;2023-07-29T11:19:54;99106.84;;;19.75;100.00
31681;BME280;18281;51.364;9.566;2023-07-29T11:22:21;99111.97;;;19.85;100.00
31681;BME280;18281;51.364;9.566;2023-07-29T11:24:46;99107.63;;;20.01;100.00
31681;BME280;18281;51.364;9.566;2023-07-29T11:27:11;99112.78;;;20.02;100.00
31681;BME280;18281;51.364;9.566;2023-07-29T11:29:37;99110.91;;;20.19;100.00
31681;BME280;18281;51.364;9.566;2023-07-29T11:32:02;99116.06;;;20.21;100.00
31681;BME280;18281;51.364;9.566;2023-07-29T11:34:34;99120.94;;;20.09;100.00
31681;BME280;18281;51.364;9.566;2023-07-29T11:36:59;99125.59;;;20.07;100.00
31681;BME280;18281;51.364;9.566;2023-07-29T11:39:25;99129.91;;;20.16;100.00
31681;BME280;18281;51.364;9.566;2023-07-29T11:41:50;99131.13;;;19.97;100.00
31681;BME280;18281;51.364;9.566;2023-07-29T11:44:18;99133.75;;;20.14;100.00
31681;BME280;18281;51.364;9.566;2023-07-29T11:46:44;99132.56;;;20.16;98.28
31681;BME280;18281;51.364;9.566;2023-07-29T11:49:09;99132.25;;;20.03;96.87
31681;BME280;18281;51.364;9.566;2023-07-29T11:51:35;99132.09;;;20.04;94.72
31681;BME280;18281;51.364;9.566;2023-07-29T11:54:01;99135.44;;;20.06;90.06
31681;BME280;18281;51.364;9.566;2023-07-29T11:56:26;99139.22;;;20.29;93.10
31681;BME280;18281;51.364;9.566;2023-07-29T11:58:53;99132.53;;;20.49;93.05
31681;BME280;18281;51.364;9.566;2023-07-29T12:01:18;99129.19;;;20.47;90.45
31681;BME280;18281;51.364;9.566;2023-07-29T12:03:43;99126.56;;;20.31;88.75
31681;BME280;18281;51.364;9.566;2023-07-29T12:06:09;99133.88;;;20.37;89.92
31681;BME280;18281;51.364;9.566;2023-07-29T12:08:34;99136.31;;;20.63;90.44
31681;BME280;18281;51.364;9.566;2023-07-29T12:11:00;99139.34;;;20.52;91.13
31681;BME280;18281;51.364;9.566;2023-07-29T12:13:25;99141.19;;;20.51;88.86
31681;BME280;18281;51.364;9.566;2023-07-29T12:15:50;99139.69;;;20.49;85.24
31681;BME280;18281;51.364;9.566;2023-07-29T12:18:15;99134.88;;;20.44;86.14
31681;BME280;18281;51.364;9.566;2023-07-29T12:20:41;99146.44;;;20.76;87.86
31681;BME280;18281;51.364;9.566;2023-07-29T12:23:06;99139.47;;;20.67;84.97
31681;BME280;18281;51.364;9.566;2023-07-29T12:25:33;99140.47;;;20.66;85.47
31681;BME280;18281;51.364;9.566;2023-07-29T12:28:02;99149.97;;;20.68;87.45
31681;BME280;18281;51.364;9.566;2023-07-29T12:30:27;99146.97;;;20.63;84.90
31681;BME280;18281;51.364;9.566;2023-07-29T12:32:53;99145.59;;;20.75;86.42
31681;BME280;18281;51.364;9.566;2023-07-29T12:35:18;99148.47;;;20.66;85.83
31681;BME280;18281;51.364;9.566;2023-07-29T12:37:43;99145.44;;;20.69;86.12
31681;BME280;18281;51.364;9.566;2023-07-29T12:40:20;99153.09;;;20.80;88.07
31681;BME280;18281;51.364;9.566;2023-07-29T12:42:45;99157.84;;;20.93;89.42
31681;BME280;18281;51.364;9.566;2023-07-29T12:45:11;99155.00;;;20.94;89.93
31681;BME280;18281;51.364;9.566;2023-07-29T12:47:36;99156.59;;;20.72;87.85
31681;BME280;18281;51.364;9.566;2023-07-29T12:50:01;99159.72;;;20.84;88.60
31681;BME280;18281;51.364;9.566;2023-07-29T12:52:26;99158.16;;;20.98;89.46
31681;BME280;18281;51.364;9.566;2023-07-29T12:54:51;99163.91;;;20.79;87.92
31681;BME280;18281;51.364;9.566;2023-07-29T12:57:16;99160.38;;;20.86;88.29
31681;BME280;18281;51.364;9.566;2023-07-29T12:59:42;99156.72;;;20.87;89.08